Airfield :
LOGIN :

Register | Disclaimer

   EN    FR    IT 

 










Legend :    VFR   Marginal VFR   IFR   Intensive IFR   Very Intensive IFR
Visi :
Ceiling :
>= 8 km
>= 3000ft
5 to 8 km
1000 to 3000 ft
1500m to 5 km
500 to 1000 ft
800 to 1500m
200 to 500 ft
< 800m
< 200 ft
Symbols :   Thunderstorms  Fog  Heavy snow  Heavy precipitations  Wind > 20 kt
SIGMETs :     Misc.  Thunderstorms  Icing  Turbulence  Mountain Waves  Volcanic Ashes







- Airport Elevation : 416 ft
- IATA code : OVD


LEAS - Asturias

CURRENT METAR :
  • 201730Z 08009KT 050V110 9999 FEW020 22/18 Q1021 NOSIG

EXPIRED METARs :
  • 201700Z 08009KT 030V120 9999 FEW020 22/18 Q1021 NOSIG
  • 201630Z 09009KT 050V120 9999 FEW020 23/18 Q1021 NOSIG
  • 201600Z 09009KT 050V140 CAVOK 23/18 Q1021 NOSIG
  • 201530Z 08009KT 040V120 CAVOK 24/18 Q1021 NOSIG
  • 201500Z 07009KT 020V110 9999 FEW018 24/17 Q1021 NOSIG

TAF TAF LEAS
Valid from the 20 at 15:00 until the 21 at 15:00 UTC


201400Z 2015/2115 09009KT CAVOK TX26/2113Z TN16/2106Z
TEMPO 2020/2107 3000 BR BKN010
PROB40
TEMPO 2020/2107 1500 BCFG BKN005
No reported NOTAMs for that airfield.
1 SIGMET reported for the Madrid FIR (LECM) :
 
Embedded thunderstorms
LECM SIGMET 2 VALID 201630/201830 LEVA
LECM MADRID FIR/UIR EMBD TS OBS AT 1614Z W OF LINE N3716 W00416 - N3855 W00415 TOP FL400 MOV NE NC=



MET'MAP, your aeronautical weather chart ! - Copyright ORBIFLY December 2007 - Disclaimer

ORBIFLY MET'MAP TEAM :

Programming & Development : Alexandra Zaïnal
Concept & Development : Baudouin d'Aumeries
Co-Development & Prog : Marc-Olivier Méhu
Technical & hardware support : Manuel Goepfert

Contact : metmap@orbifly.com




SOURCES & CREDITS :

   NOAA